sensor_id;sensor_type;location;lat;lon;timestamp;P1;durP1;ratioP1;P2;durP2;ratioP2
6033;SDS011;3045;43.226;27.858;2023-07-22T00:00:03;11.20;;;10.13;;
6033;SDS011;3045;43.226;27.858;2023-07-22T00:02:34;16.95;;;9.90;;
6033;SDS011;3045;43.226;27.858;2023-07-22T00:05:01;12.45;;;9.75;;
6033;SDS011;3045;43.226;27.858;2023-07-22T00:07:29;10.88;;;10.20;;
6033;SDS011;3045;43.226;27.858;2023-07-22T00:09:56;10.57;;;9.77;;
6033;SDS011;3045;43.226;27.858;2023-07-22T00:12:23;11.05;;;10.10;;
6033;SDS011;3045;43.226;27.858;2023-07-22T00:14:51;10.10;;;9.30;;
6033;SDS011;3045;43.226;27.858;2023-07-22T00:17:18;11.35;;;10.30;;
6033;SDS011;3045;43.226;27.858;2023-07-22T00:19:46;11.15;;;10.20;;
6033;SDS011;3045;43.226;27.858;2023-07-22T00:22:13;10.70;;;9.80;;
6033;SDS011;3045;43.226;27.858;2023-07-22T00:24:41;10.13;;;9.43;;
6033;SDS011;3045;43.226;27.858;2023-07-22T00:27:08;11.02;;;10.02;;
6033;SDS011;3045;43.226;27.858;2023-07-22T00:29:35;16.65;;;10.02;;
6033;SDS011;3045;43.226;27.858;2023-07-22T00:32:02;10.77;;;10.00;;
6033;SDS011;3045;43.226;27.858;2023-07-22T00:34:32;15.35;;;10.10;;
6033;SDS011;3045;43.226;27.858;2023-07-22T00:36:59;13.82;;;11.90;;
6033;SDS011;3045;43.226;27.858;2023-07-22T00:39:26;20.75;;;11.38;;
6033;SDS011;3045;43.226;27.858;2023-07-22T00:41:54;14.88;;;11.05;;
6033;SDS011;3045;43.226;27.858;2023-07-22T00:44:21;13.00;;;11.70;;
6033;SDS011;3045;43.226;27.858;2023-07-22T00:46:48;18.77;;;11.38;;
6033;SDS011;3045;43.226;27.858;2023-07-22T00:49:16;13.18;;;11.02;;
6033;SDS011;3045;43.226;27.858;2023-07-22T00:51:43;11.52;;;10.57;;
6033;SDS011;3045;43.226;27.858;2023-07-22T00:54:10;16.85;;;11.95;;
6033;SDS011;3045;43.226;27.858;2023-07-22T00:56:37;14.38;;;11.93;;
6033;SDS011;3045;43.226;27.858;2023-07-22T00:59:08;17.70;;;11.20;;
6033;SDS011;3045;43.226;27.858;2023-07-22T01:01:35;12.32;;;11.10;;
6033;SDS011;3045;43.226;27.858;2023-07-22T01:04:01;12.13;;;11.32;;
6033;SDS011;3045;43.226;27.858;2023-07-22T01:06:29;12.25;;;10.68;;
6033;SDS011;3045;43.226;27.858;2023-07-22T01:08:56;10.88;;;9.93;;
6033;SDS011;3045;43.226;27.858;2023-07-22T01:11:24;12.18;;;11.05;;
6033;SDS011;3045;43.226;27.858;2023-07-22T01:13:51;14.23;;;11.20;;
6033;SDS011;3045;43.226;27.858;2023-07-22T01:16:24;14.60;;;11.35;;
6033;SDS011;3045;43.226;27.858;2023-07-22T01:18:52;17.80;;;10.65;;
6033;SDS011;3045;43.226;27.858;2023-07-22T01:21:21;13.55;;;11.88;;
6033;SDS011;3045;43.226;27.858;2023-07-22T01:23:51;17.65;;;11.35;;
6033;SDS011;3045;43.226;27.858;2023-07-22T01:26:18;14.55;;;10.75;;
6033;SDS011;3045;43.226;27.858;2023-07-22T01:28:45;15.73;;;11.30;;
6033;SDS011;3045;43.226;27.858;2023-07-22T01:31:12;13.88;;;10.90;;
6033;SDS011;3045;43.226;27.858;2023-07-22T01:33:39;11.07;;;10.07;;
6033;SDS011;3045;43.226;27.858;2023-07-22T01:36:06;12.85;;;11.55;;
6033;SDS011;3045;43.226;27.858;2023-07-22T01:38:33;16.63;;;11.57;;
6033;SDS011;3045;43.226;27.858;2023-07-22T01:41:02;16.75;;;11.40;;
6033;SDS011;3045;43.226;27.858;2023-07-22T01:43:29;12.98;;;10.90;;
6033;SDS011;3045;43.226;27.858;2023-07-22T01:45:56;18.83;;;11.68;;
6033;SDS011;3045;43.226;27.858;2023-07-22T01:48:23;12.30;;;11.05;;
6033;SDS011;3045;43.226;27.858;2023-07-22T01:50:49;12.15;;;11.13;;
6033;SDS011;3045;43.226;27.858;2023-07-22T01:53:16;12.35;;;11.07;;
6033;SDS011;3045;43.226;27.858;2023-07-22T01:55:43;17.08;;;11.90;;
6033;SDS011;3045;43.226;27.858;2023-07-22T01:58:12;14.95;;;11.32;;
6033;SDS011;3045;43.226;27.858;2023-07-22T02:00:39;11.98;;;10.95;;
6033;SDS011;3045;43.226;27.858;2023-07-22T02:03:05;13.90;;;11.48;;
6033;SDS011;3045;43.226;27.858;2023-07-22T02:05:32;14.10;;;11.40;;
6033;SDS011;3045;43.226;27.858;2023-07-22T02:07:59;13.80;;;11.57;;
6033;SDS011;3045;43.226;27.858;2023-07-22T02:10:26;12.38;;;11.20;;
6033;SDS011;3045;43.226;27.858;2023-07-22T02:12:53;11.90;;;11.10;;
6033;SDS011;3045;43.226;27.858;2023-07-22T02:15:21;12.35;;;11.15;;
6033;SDS011;3045;43.226;27.858;2023-07-22T02:17:49;12.48;;;11.23;;
6033;SDS011;3045;43.226;27.858;2023-07-22T02:20:16;13.32;;;11.23;;
6033;SDS011;3045;43.226;27.858;2023-07-22T02:22:43;11.50;;;10.40;;
6033;SDS011;3045;43.226;27.858;2023-07-22T02:25:10;11.45;;;10.63;;
6033;SDS011;3045;43.226;27.858;2023-07-22T02:27:37;12.05;;;10.80;;
6033;SDS011;3045;43.226;27.858;2023-07-22T02:30:06;12.15;;;11.20;;
6033;SDS011;3045;43.226;27.858;2023-07-22T02:32:38;12.70;;;11.45;;
6033;SDS011;3045;43.226;27.858;2023-07-22T02:35:06;10.98;;;10.20;;
6033;SDS011;3045;43.226;27.858;2023-07-22T02:37:33;10.70;;;10.00;;
6033;SDS011;3045;43.226;27.858;2023-07-22T02:40:00;11.63;;;10.27;;
6033;SDS011;3045;43.226;27.858;2023-07-22T02:42:32;11.45;;;10.45;;
6033;SDS011;3045;43.226;27.858;2023-07-22T02:45:00;11.60;;;10.93;;
6033;SDS011;3045;43.226;27.858;2023-07-22T02:47:26;12.35;;;11.10;;
6033;SDS011;3045;43.226;27.858;2023-07-22T02:49:55;11.07;;;10.43;;
6033;SDS011;3045;43.226;27.858;2023-07-22T02:52:22;11.80;;;10.77;;
6033;SDS011;3045;43.226;27.858;2023-07-22T02:55:03;12.10;;;10.93;;
6033;SDS011;3045;43.226;27.858;2023-07-22T02:57:32;10.50;;;9.90;;
6033;SDS011;3045;43.226;27.858;2023-07-22T02:59:59;10.10;;;9.32;;
6033;SDS011;3045;43.226;27.858;2023-07-22T03:02:26;10.60;;;10.00;;
6033;SDS011;3045;43.226;27.858;2023-07-22T03:04:53;10.35;;;9.75;;
6033;SDS011;3045;43.226;27.858;2023-07-22T03:07:22;10.57;;;9.73;;
6033;SDS011;3045;43.226;27.858;2023-07-22T03:09:52;9.60;;;8.88;;
6033;SDS011;3045;43.226;27.858;2023-07-22T03:12:19;9.50;;;9.00;;
6033;SDS011;3045;43.226;27.858;2023-07-22T03:14:46;9.60;;;9.00;;
6033;SDS011;3045;43.226;27.858;2023-07-22T03:17:14;9.85;;;9.13;;
6033;SDS011;3045;43.226;27.858;2023-07-22T03:19:41;9.60;;;9.10;;
6033;SDS011;3045;43.226;27.858;2023-07-22T03:22:10;9.60;;;8.95;;
6033;SDS011;3045;43.226;27.858;2023-07-22T03:24:39;9.45;;;8.63;;
6033;SDS011;3045;43.226;27.858;2023-07-22T03:27:06;9.07;;;8.50;;
6033;SDS011;3045;43.226;27.858;2023-07-22T03:29:33;9.13;;;8.50;;
6033;SDS011;3045;43.226;27.858;2023-07-22T03:32:00;10.15;;;9.18;;
6033;SDS011;3045;43.226;27.858;2023-07-22T03:34:27;10.02;;;9.40;;
6033;SDS011;3045;43.226;27.858;2023-07-22T03:36:54;11.65;;;9.55;;
6033;SDS011;3045;43.226;27.858;2023-07-22T03:39:22;9.52;;;8.88;;
6033;SDS011;3045;43.226;27.858;2023-07-22T03:41:49;11.57;;;9.77;;
6033;SDS011;3045;43.226;27.858;2023-07-22T03:44:22;9.50;;;8.57;;
6033;SDS011;3045;43.226;27.858;2023-07-22T03:46:51;8.82;;;8.13;;
6033;SDS011;3045;43.226;27.858;2023-07-22T03:49:18;9.07;;;8.25;;
6033;SDS011;3045;43.226;27.858;2023-07-22T03:51:45;9.68;;;9.05;;
6033;SDS011;3045;43.226;27.858;2023-07-22T03:54:12;9.10;;;8.50;;
6033;SDS011;3045;43.226;27.858;2023-07-22T03:56:40;8.77;;;7.93;;
6033;SDS011;3045;43.226;27.858;2023-07-22T03:59:07;9.27;;;8.20;;
6033;SDS011;3045;43.226;27.858;2023-07-22T04:01:34;9.07;;;8.52;;
6033;SDS011;3045;43.226;27.858;2023-07-22T04:04:01;9.45;;;8.07;;
6033;SDS011;3045;43.226;27.858;2023-07-22T04:06:28;8.52;;;8.02;;
6033;SDS011;3045;43.226;27.858;2023-07-22T04:08:55;9.43;;;8.35;;
6033;SDS011;3045;43.226;27.858;2023-07-22T04:11:21;8.43;;;7.70;;
6033;SDS011;3045;43.226;27.858;2023-07-22T04:13:50;8.90;;;8.30;;
6033;SDS011;3045;43.226;27.858;2023-07-22T04:16:17;8.60;;;7.97;;
6033;SDS011;3045;43.226;27.858;2023-07-22T04:18:44;8.52;;;7.88;;
6033;SDS011;3045;43.226;27.858;2023-07-22T04:21:11;8.23;;;7.57;;
6033;SDS011;3045;43.226;27.858;2023-07-22T04:23:38;8.90;;;6.97;;
6033;SDS011;3045;43.226;27.858;2023-07-22T04:26:04;7.43;;;6.93;;
6033;SDS011;3045;43.226;27.858;2023-07-22T04:28:32;7.18;;;6.88;;
6033;SDS011;3045;43.226;27.858;2023-07-22T04:31:01;7.47;;;6.95;;
6033;SDS011;3045;43.226;27.858;2023-07-22T04:33:28;7.28;;;6.95;;
6033;SDS011;3045;43.226;27.858;2023-07-22T04:35:55;7.80;;;7.30;;
6033;SDS011;3045;43.226;27.858;2023-07-22T04:38:24;7.03;;;6.72;;
6033;SDS011;3045;43.226;27.858;2023-07-22T04:40:51;6.97;;;6.43;;
6033;SDS011;3045;43.226;27.858;2023-07-22T04:43:18;6.85;;;6.45;;
6033;SDS011;3045;43.226;27.858;2023-07-22T04:45:45;6.63;;;6.07;;
6033;SDS011;3045;43.226;27.858;2023-07-22T04:48:14;7.75;;;5.57;;
6033;SDS011;3045;43.226;27.858;2023-07-22T04:50:42;6.38;;;5.97;;
6033;SDS011;3045;43.226;27.858;2023-07-22T04:53:10;6.32;;;6.03;;
6033;SDS011;3045;43.226;27.858;2023-07-22T04:55:38;6.20;;;5.70;;
6033;SDS011;3045;43.226;27.858;2023-07-22T04:58:07;6.20;;;5.93;;
6033;SDS011;3045;43.226;27.858;2023-07-22T05:00:35;5.78;;;5.47;;
6033;SDS011;3045;43.226;27.858;2023-07-22T05:03:02;6.53;;;5.93;;
6033;SDS011;3045;43.226;27.858;2023-07-22T05:05:31;5.97;;;5.68;;
6033;SDS011;3045;43.226;27.858;2023-07-22T05:07:58;5.97;;;5.68;;
6033;SDS011;3045;43.226;27.858;2023-07-22T05:10:25;6.22;;;5.93;;
6033;SDS011;3045;43.226;27.858;2023-07-22T05:12:54;5.47;;;5.20;;
6033;SDS011;3045;43.226;27.858;2023-07-22T05:15:22;6.45;;;6.00;;
6033;SDS011;3045;43.226;27.858;2023-07-22T05:17:51;6.05;;;5.65;;
6033;SDS011;3045;43.226;27.858;2023-07-22T05:20:18;6.30;;;5.85;;
6033;SDS011;3045;43.226;27.858;2023-07-22T05:22:47;5.40;;;5.03;;
6033;SDS011;3045;43.226;27.858;2023-07-22T05:25:14;5.72;;;5.43;;
6033;SDS011;3045;43.226;27.858;2023-07-22T05:27:41;6.07;;;5.78;;
6033;SDS011;3045;43.226;27.858;2023-07-22T05:30:08;6.22;;;5.38;;
6033;SDS011;3045;43.226;27.858;2023-07-22T05:32:35;7.00;;;6.13;;
6033;SDS011;3045;43.226;27.858;2023-07-22T05:35:02;6.88;;;6.30;;
6033;SDS011;3045;43.226;27.858;2023-07-22T05:37:30;8.88;;;6.43;;
6033;SDS011;3045;43.226;27.858;2023-07-22T05:39:59;8.48;;;5.60;;
6033;SDS011;3045;43.226;27.858;2023-07-22T05:42:26;5.85;;;5.55;;
6033;SDS011;3045;43.226;27.858;2023-07-22T05:44:53;5.80;;;5.30;;
6033;SDS011;3045;43.226;27.858;2023-07-22T05:47:21;5.63;;;5.32;;
6033;SDS011;3045;43.226;27.858;2023-07-22T05:49:48;5.80;;;5.50;;
6033;SDS011;3045;43.226;27.858;2023-07-22T05:52:15;5.60;;;5.40;;
6033;SDS011;3045;43.226;27.858;2023-07-22T05:54:42;10.48;;;5.90;;
6033;SDS011;3045;43.226;27.858;2023-07-22T05:57:10;5.80;;;5.55;;
6033;SDS011;3045;43.226;27.858;2023-07-22T05:59:37;5.25;;;5.05;;
6033;SDS011;3045;43.226;27.858;2023-07-22T06:02:05;5.63;;;5.32;;
6033;SDS011;3045;43.226;27.858;2023-07-22T06:04:32;6.15;;;5.57;;
6033;SDS011;3045;43.226;27.858;2023-07-22T06:06:59;5.97;;;5.50;;
6033;SDS011;3045;43.226;27.858;2023-07-22T06:09:26;6.75;;;5.82;;
6033;SDS011;3045;43.226;27.858;2023-07-22T06:11:53;4.72;;;4.53;;
6033;SDS011;3045;43.226;27.858;2023-07-22T06:14:21;5.85;;;5.55;;
6033;SDS011;3045;43.226;27.858;2023-07-22T06:16:48;5.95;;;5.50;;
6033;SDS011;3045;43.226;27.858;2023-07-22T06:19:15;5.82;;;5.35;;
6033;SDS011;3045;43.226;27.858;2023-07-22T06:21:42;5.25;;;5.05;;
6033;SDS011;3045;43.226;27.858;2023-07-22T06:24:09;6.43;;;5.47;;
6033;SDS011;3045;43.226;27.858;2023-07-22T06:26:36;5.35;;;5.05;;
6033;SDS011;3045;43.226;27.858;2023-07-22T06:29:03;6.32;;;5.10;;
6033;SDS011;3045;43.226;27.858;2023-07-22T06:31:31;5.53;;;5.00;;
6033;SDS011;3045;43.226;27.858;2023-07-22T06:33:58;5.63;;;5.32;;
6033;SDS011;3045;43.226;27.858;2023-07-22T06:36:25;7.00;;;4.95;;
6033;SDS011;3045;43.226;27.858;2023-07-22T06:38:53;5.65;;;4.47;;
6033;SDS011;3045;43.226;27.858;2023-07-22T06:41:21;4.97;;;4.68;;
6033;SDS011;3045;43.226;27.858;2023-07-22T06:43:49;5.13;;;4.78;;
6033;SDS011;3045;43.226;27.858;2023-07-22T06:46:16;11.25;;;4.82;;
6033;SDS011;3045;43.226;27.858;2023-07-22T06:48:45;5.68;;;5.13;;
6033;SDS011;3045;43.226;27.858;2023-07-22T06:51:13;7.35;;;5.43;;
6033;SDS011;3045;43.226;27.858;2023-07-22T06:53:40;4.63;;;4.32;;
6033;SDS011;3045;43.226;27.858;2023-07-22T06:56:07;5.00;;;4.50;;
6033;SDS011;3045;43.226;27.858;2023-07-22T06:58:34;5.47;;;5.18;;
6033;SDS011;3045;43.226;27.858;2023-07-22T07:01:01;4.90;;;4.45;;
6033;SDS011;3045;43.226;27.858;2023-07-22T07:03:27;5.40;;;4.93;;
6033;SDS011;3045;43.226;27.858;2023-07-22T07:05:56;4.85;;;4.47;;
6033;SDS011;3045;43.226;27.858;2023-07-22T07:08:24;4.97;;;4.57;;
6033;SDS011;3045;43.226;27.858;2023-07-22T07:10:51;8.18;;;5.00;;
6033;SDS011;3045;43.226;27.858;2023-07-22T07:13:18;4.60;;;4.18;;
6033;SDS011;3045;43.226;27.858;2023-07-22T07:15:46;5.10;;;4.75;;
6033;SDS011;3045;43.226;27.858;2023-07-22T07:18:15;6.50;;;3.97;;
6033;SDS011;3045;43.226;27.858;2023-07-22T07:20:43;4.00;;;3.80;;
6033;SDS011;3045;43.226;27.858;2023-07-22T07:23:12;4.07;;;3.80;;
6033;SDS011;3045;43.226;27.858;2023-07-22T07:25:42;4.43;;;4.07;;
6033;SDS011;3045;43.226;27.858;2023-07-22T07:28:13;4.30;;;4.05;;
6033;SDS011;3045;43.226;27.858;2023-07-22T07:30:40;4.78;;;4.55;;
6033;SDS011;3045;43.226;27.858;2023-07-22T07:33:06;4.63;;;3.85;;
6033;SDS011;3045;43.226;27.858;2023-07-22T07:35:33;4.60;;;4.30;;
6033;SDS011;3045;43.226;27.858;2023-07-22T07:38:00;4.60;;;4.30;;
6033;SDS011;3045;43.226;27.858;2023-07-22T07:40:29;4.45;;;4.15;;
6033;SDS011;3045;43.226;27.858;2023-07-22T07:42:57;4.50;;;4.20;;
6033;SDS011;3045;43.226;27.858;2023-07-22T07:45:23;5.72;;;4.38;;
6033;SDS011;3045;43.226;27.858;2023-07-22T07:47:50;4.57;;;4.18;;
6033;SDS011;3045;43.226;27.858;2023-07-22T07:50:17;4.03;;;3.90;;
6033;SDS011;3045;43.226;27.858;2023-07-22T07:52:45;5.70;;;4.38;;
6033;SDS011;3045;43.226;27.858;2023-07-22T07:55:11;8.23;;;4.20;;
6033;SDS011;3045;43.226;27.858;2023-07-22T07:57:40;4.60;;;4.40;;
6033;SDS011;3045;43.226;27.858;2023-07-22T08:00:07;4.68;;;4.38;;
6033;SDS011;3045;43.226;27.858;2023-07-22T08:02:34;5.03;;;4.57;;
6033;SDS011;3045;43.226;27.858;2023-07-22T08:05:01;4.93;;;4.65;;
6033;SDS011;3045;43.226;27.858;2023-07-22T08:07:28;4.78;;;4.47;;
6033;SDS011;3045;43.226;27.858;2023-07-22T08:09:55;4.43;;;4.05;;
6033;SDS011;3045;43.226;27.858;2023-07-22T08:12:23;4.60;;;4.40;;
6033;SDS011;3045;43.226;27.858;2023-07-22T08:14:53;6.97;;;4.93;;
6033;SDS011;3045;43.226;27.858;2023-07-22T08:17:20;8.32;;;4.35;;
6033;SDS011;3045;43.226;27.858;2023-07-22T08:19:47;5.70;;;4.60;;
6033;SDS011;3045;43.226;27.858;2023-07-22T08:22:14;4.53;;;4.18;;
6033;SDS011;3045;43.226;27.858;2023-07-22T08:24:41;6.20;;;4.50;;
6033;SDS011;3045;43.226;27.858;2023-07-22T08:27:08;4.20;;;4.00;;
6033;SDS011;3045;43.226;27.858;2023-07-22T08:29:35;4.93;;;4.38;;
6033;SDS011;3045;43.226;27.858;2023-07-22T08:32:04;4.72;;;4.43;;
6033;SDS011;3045;43.226;27.858;2023-07-22T08:34:31;4.78;;;4.47;;
6033;SDS011;3045;43.226;27.858;2023-07-22T08:36:58;4.45;;;4.25;;
6033;SDS011;3045;43.226;27.858;2023-07-22T08:39:25;4.97;;;4.55;;
6033;SDS011;3045;43.226;27.858;2023-07-22T08:41:51;4.90;;;4.57;;
6033;SDS011;3045;43.226;27.858;2023-07-22T08:44:20;4.75;;;4.53;;
6033;SDS011;3045;43.226;27.858;2023-07-22T08:46:48;5.40;;;4.55;;
6033;SDS011;3045;43.226;27.858;2023-07-22T08:49:19;6.47;;;5.00;;
6033;SDS011;3045;43.226;27.858;2023-07-22T08:51:47;5.40;;;4.93;;
6033;SDS011;3045;43.226;27.858;2023-07-22T08:54:15;5.60;;;5.20;;
6033;SDS011;3045;43.226;27.858;2023-07-22T08:56:42;4.53;;;4.25;;
6033;SDS011;3045;43.226;27.858;2023-07-22T08:59:09;5.85;;;5.43;;
6033;SDS011;3045;43.226;27.858;2023-07-22T09:01:37;5.82;;;5.40;;
6033;SDS011;3045;43.226;27.858;2023-07-22T09:04:04;5.47;;;5.05;;
6033;SDS011;3045;43.226;27.858;2023-07-22T09:06:33;6.55;;;5.97;;
6033;SDS011;3045;43.226;27.858;2023-07-22T09:09:01;6.05;;;5.53;;
6033;SDS011;3045;43.226;27.858;2023-07-22T09:11:29;6.35;;;5.85;;
6033;SDS011;3045;43.226;27.858;2023-07-22T09:13:56;6.03;;;5.47;;
6033;SDS011;3045;43.226;27.858;2023-07-22T09:16:25;5.95;;;5.55;;
6033;SDS011;3045;43.226;27.858;2023-07-22T09:18:54;5.97;;;5.68;;
6033;SDS011;3045;43.226;27.858;2023-07-22T09:21:21;5.70;;;5.30;;
6033;SDS011;3045;43.226;27.858;2023-07-22T09:23:49;5.88;;;5.57;;
6033;SDS011;3045;43.226;27.858;2023-07-22T09:26:17;5.72;;;5.35;;
6033;SDS011;3045;43.226;27.858;2023-07-22T09:28:47;6.07;;;5.78;;
6033;SDS011;3045;43.226;27.858;2023-07-22T09:31:15;5.53;;;5.22;;
6033;SDS011;3045;43.226;27.858;2023-07-22T09:33:42;6.05;;;5.60;;
6033;SDS011;3045;43.226;27.858;2023-07-22T09:36:09;5.70;;;5.38;;
6033;SDS011;3045;43.226;27.858;2023-07-22T09:38:37;6.13;;;5.72;;
6033;SDS011;3045;43.226;27.858;2023-07-22T09:41:08;5.80;;;5.40;;
6033;SDS011;3045;43.226;27.858;2023-07-22T09:43:38;5.53;;;5.22;;
6033;SDS011;3045;43.226;27.858;2023-07-22T09:46:06;5.72;;;5.03;;
6033;SDS011;3045;43.226;27.858;2023-07-22T09:48:43;8.70;;;5.65;;
6033;SDS011;3045;43.226;27.858;2023-07-22T09:51:11;5.82;;;5.47;;
6033;SDS011;3045;43.226;27.858;2023-07-22T09:53:43;5.60;;;5.32;;
6033;SDS011;3045;43.226;27.858;2023-07-22T09:56:12;5.70;;;5.30;;
6033;SDS011;3045;43.226;27.858;2023-07-22T09:58:40;5.25;;;5.05;;
6033;SDS011;3045;43.226;27.858;2023-07-22T10:01:10;5.32;;;5.03;;
6033;SDS011;3045;43.226;27.858;2023-07-22T10:03:40;5.88;;;5.57;;
6033;SDS011;3045;43.226;27.858;2023-07-22T10:06:11;6.20;;;5.65;;
6033;SDS011;3045;43.226;27.858;2023-07-22T10:08:42;5.93;;;5.53;;
6033;SDS011;3045;43.226;27.858;2023-07-22T10:11:12;5.57;;;5.28;;
6033;SDS011;3045;43.226;27.858;2023-07-22T10:13:40;11.23;;;5.53;;
6033;SDS011;3045;43.226;27.858;2023-07-22T10:16:07;5.82;;;5.50;;
6033;SDS011;3045;43.226;27.858;2023-07-22T10:18:35;5.43;;;4.97;;
6033;SDS011;3045;43.226;27.858;2023-07-22T10:21:03;5.72;;;5.43;;
6033;SDS011;3045;43.226;27.858;2023-07-22T10:23:30;5.88;;;5.57;;
6033;SDS011;3045;43.226;27.858;2023-07-22T10:25:58;6.28;;;5.78;;
6033;SDS011;3045;43.226;27.858;2023-07-22T10:28:27;6.10;;;5.70;;
6033;SDS011;3045;43.226;27.858;2023-07-22T10:30:55;5.80;;;5.30;;
6033;SDS011;3045;43.226;27.858;2023-07-22T10:33:24;5.78;;;5.35;;
6033;SDS011;3045;43.226;27.858;2023-07-22T10:36:01;6.18;;;5.90;;
6033;SDS011;3045;43.226;27.858;2023-07-22T10:38:30;5.95;;;5.45;;
6033;SDS011;3045;43.226;27.858;2023-07-22T10:40:58;6.55;;;6.07;;
6033;SDS011;3045;43.226;27.858;2023-07-22T10:43:27;5.70;;;5.45;;
6033;SDS011;3045;43.226;27.858;2023-07-22T10:46:00;5.38;;;4.97;;
6033;SDS011;3045;43.226;27.858;2023-07-22T10:48:34;6.22;;;5.60;;
6033;SDS011;3045;43.226;27.858;2023-07-22T10:51:04;6.15;;;5.22;;
6033;SDS011;3045;43.226;27.858;2023-07-22T10:53:32;5.55;;;5.35;;
6033;SDS011;3045;43.226;27.858;2023-07-22T10:56:13;6.18;;;5.78;;
6033;SDS011;3045;43.226;27.858;2023-07-22T10:58:59;5.40;;;5.07;;
6033;SDS011;3045;43.226;27.858;2023-07-22T11:01:31;6.43;;;5.82;;
6033;SDS011;3045;43.226;27.858;2023-07-22T11:04:04;6.22;;;5.85;;
6033;SDS011;3045;43.226;27.858;2023-07-22T11:06:36;6.05;;;5.75;;
6033;SDS011;3045;43.226;27.858;2023-07-22T11:09:04;5.88;;;5.47;;
6033;SDS011;3045;43.226;27.858;2023-07-22T11:11:35;5.43;;;5.22;;
6033;SDS011;3045;43.226;27.858;2023-07-22T11:14:17;5.80;;;5.50;;
6033;SDS011;3045;43.226;27.858;2023-07-22T11:16:47;6.43;;;5.82;;
6033;SDS011;3045;43.226;27.858;2023-07-22T11:19:15;9.88;;;5.75;;
6033;SDS011;3045;43.226;27.858;2023-07-22T11:21:43;5.63;;;5.30;;
6033;SDS011;3045;43.226;27.858;2023-07-22T11:24:10;6.07;;;5.72;;
6033;SDS011;3045;43.226;27.858;2023-07-22T11:26:37;5.65;;;5.45;;
6033;SDS011;3045;43.226;27.858;2023-07-22T11:29:06;6.05;;;5.55;;
6033;SDS011;3045;43.226;27.858;2023-07-22T11:31:35;5.80;;;5.50;;
6033;SDS011;3045;43.226;27.858;2023-07-22T11:34:07;6.68;;;6.07;;
6033;SDS011;3045;43.226;27.858;2023-07-22T11:36:34;6.05;;;5.70;;
6033;SDS011;3045;43.226;27.858;2023-07-22T11:39:02;5.85;;;5.55;;
6033;SDS011;3045;43.226;27.858;2023-07-22T11:41:30;6.03;;;5.60;;
6033;SDS011;3045;43.226;27.858;2023-07-22T11:43:58;6.10;;;5.78;;
6033;SDS011;3045;43.226;27.858;2023-07-22T11:46:25;6.43;;;5.93;;
6033;SDS011;3045;43.226;27.858;2023-07-22T11:48:55;6.35;;;5.82;;
6033;SDS011;3045;43.226;27.858;2023-07-22T11:51:23;5.43;;;5.13;;
6033;SDS011;3045;43.226;27.858;2023-07-22T11:53:51;6.38;;;6.07;;
6033;SDS011;3045;43.226;27.858;2023-07-22T11:56:20;6.28;;;5.88;;
6033;SDS011;3045;43.226;27.858;2023-07-22T11:58:48;11.30;;;5.50;;
6033;SDS011;3045;43.226;27.858;2023-07-22T12:01:16;6.30;;;5.90;;
6033;SDS011;3045;43.226;27.858;2023-07-22T12:03:43;6.30;;;5.80;;
6033;SDS011;3045;43.226;27.858;2023-07-22T12:06:12;5.38;;;5.15;;
6033;SDS011;3045;43.226;27.858;2023-07-22T12:08:42;5.90;;;5.50;;
6033;SDS011;3045;43.226;27.858;2023-07-22T12:11:17;5.90;;;5.53;;
6033;SDS011;3045;43.226;27.858;2023-07-22T12:13:46;5.53;;;5.32;;
6033;SDS011;3045;43.226;27.858;2023-07-22T12:16:20;6.55;;;5.95;;
6033;SDS011;3045;43.226;27.858;2023-07-22T12:18:49;5.82;;;5.47;;
6033;SDS011;3045;43.226;27.858;2023-07-22T12:21:17;8.38;;;5.50;;
6033;SDS011;3045;43.226;27.858;2023-07-22T12:23:45;5.60;;;5.30;;
6033;SDS011;3045;43.226;27.858;2023-07-22T12:26:12;7.88;;;5.68;;
6033;SDS011;3045;43.226;27.858;2023-07-22T12:28:39;6.15;;;5.75;;
6033;SDS011;3045;43.226;27.858;2023-07-22T12:31:06;6.05;;;5.50;;
6033;SDS011;3045;43.226;27.858;2023-07-22T12:33:34;6.43;;;5.88;;
6033;SDS011;3045;43.226;27.858;2023-07-22T12:36:01;6.40;;;6.03;;
6033;SDS011;3045;43.226;27.858;2023-07-22T12:38:30;6.30;;;5.75;;
6033;SDS011;3045;43.226;27.858;2023-07-22T12:40:57;5.97;;;5.68;;
6033;SDS011;3045;43.226;27.858;2023-07-22T12:43:23;5.82;;;5.10;;
6033;SDS011;3045;43.226;27.858;2023-07-22T12:45:50;5.60;;;5.30;;
6033;SDS011;3045;43.226;27.858;2023-07-22T12:48:17;6.18;;;5.57;;
6033;SDS011;3045;43.226;27.858;2023-07-22T12:50:49;6.88;;;5.93;;
6033;SDS011;3045;43.226;27.858;2023-07-22T12:53:16;5.38;;;5.07;;
6033;SDS011;3045;43.226;27.858;2023-07-22T12:55:44;6.22;;;5.57;;
6033;SDS011;3045;43.226;27.858;2023-07-22T12:58:11;7.40;;;5.68;;
6033;SDS011;3045;43.226;27.858;2023-07-22T13:00:38;6.10;;;5.90;;
6033;SDS011;3045;43.226;27.858;2023-07-22T13:03:05;6.68;;;5.63;;
6033;SDS011;3045;43.226;27.858;2023-07-22T13:05:32;7.25;;;6.05;;
6033;SDS011;3045;43.226;27.858;2023-07-22T13:07:58;7.03;;;5.68;;
6033;SDS011;3045;43.226;27.858;2023-07-22T13:10:26;6.07;;;5.57;;
6033;SDS011;3045;43.226;27.858;2023-07-22T13:13:05;6.28;;;5.75;;
6033;SDS011;3045;43.226;27.858;2023-07-22T13:15:32;7.57;;;6.15;;
6033;SDS011;3045;43.226;27.858;2023-07-22T13:17:59;5.47;;;5.18;;
6033;SDS011;3045;43.226;27.858;2023-07-22T13:20:26;6.20;;;5.78;;
6033;SDS011;3045;43.226;27.858;2023-07-22T13:22:53;5.75;;;5.45;;
6033;SDS011;3045;43.226;27.858;2023-07-22T13:25:20;6.05;;;5.47;;
6033;SDS011;3045;43.226;27.858;2023-07-22T13:27:47;6.95;;;5.38;;
6033;SDS011;3045;43.226;27.858;2023-07-22T13:30:15;5.95;;;5.70;;
6033;SDS011;3045;43.226;27.858;2023-07-22T13:32:42;6.53;;;5.85;;
6033;SDS011;3045;43.226;27.858;2023-07-22T13:35:09;5.47;;;4.93;;
6033;SDS011;3045;43.226;27.858;2023-07-22T13:37:36;7.05;;;5.32;;
6033;SDS011;3045;43.226;27.858;2023-07-22T13:40:03;5.60;;;5.10;;
6033;SDS011;3045;43.226;27.858;2023-07-22T13:42:35;6.00;;;5.43;;
6033;SDS011;3045;43.226;27.858;2023-07-22T13:45:03;5.70;;;5.22;;
6033;SDS011;3045;43.226;27.858;2023-07-22T13:47:32;6.00;;;5.38;;
6033;SDS011;3045;43.226;27.858;2023-07-22T13:49:59;5.72;;;5.43;;
6033;SDS011;3045;43.226;27.858;2023-07-22T13:52:26;6.10;;;5.43;;
6033;SDS011;3045;43.226;27.858;2023-07-22T13:54:52;5.68;;;5.13;;
6033;SDS011;3045;43.226;27.858;2023-07-22T13:57:19;5.60;;;5.07;;
6033;SDS011;3045;43.226;27.858;2023-07-22T13:59:46;5.32;;;5.03;;
6033;SDS011;3045;43.226;27.858;2023-07-22T14:02:13;7.45;;;4.97;;
6033;SDS011;3045;43.226;27.858;2023-07-22T14:04:41;5.60;;;5.10;;
6033;SDS011;3045;43.226;27.858;2023-07-22T14:07:08;5.45;;;5.10;;
6033;SDS011;3045;43.226;27.858;2023-07-22T14:09:35;6.35;;;5.25;;
6033;SDS011;3045;43.226;27.858;2023-07-22T14:12:02;5.70;;;5.20;;
6033;SDS011;3045;43.226;27.858;2023-07-22T14:14:29;10.45;;;5.45;;
6033;SDS011;3045;43.226;27.858;2023-07-22T14:16:56;7.20;;;5.20;;
6033;SDS011;3045;43.226;27.858;2023-07-22T14:19:23;5.15;;;4.65;;
6033;SDS011;3045;43.226;27.858;2023-07-22T14:21:52;6.05;;;5.47;;
6033;SDS011;3045;43.226;27.858;2023-07-22T14:24:19;9.48;;;5.57;;
6033;SDS011;3045;43.226;27.858;2023-07-22T14:26:46;5.28;;;4.97;;
6033;SDS011;3045;43.226;27.858;2023-07-22T14:29:13;7.63;;;5.30;;
6033;SDS011;3045;43.226;27.858;2023-07-22T14:31:41;5.30;;;5.07;;
6033;SDS011;3045;43.226;27.858;2023-07-22T14:34:09;5.72;;;5.20;;
6033;SDS011;3045;43.226;27.858;2023-07-22T14:36:36;5.35;;;5.05;;
6033;SDS011;3045;43.226;27.858;2023-07-22T14:39:04;5.30;;;5.07;;
6033;SDS011;3045;43.226;27.858;2023-07-22T14:41:31;5.22;;;5.00;;
6033;SDS011;3045;43.226;27.858;2023-07-22T14:43:59;5.25;;;4.75;;
6033;SDS011;3045;43.226;27.858;2023-07-22T14:46:26;6.20;;;4.88;;
6033;SDS011;3045;43.226;27.858;2023-07-22T14:48:53;5.70;;;5.25;;
6033;SDS011;3045;43.226;27.858;2023-07-22T14:51:20;5.05;;;4.68;;
6033;SDS011;3045;43.226;27.858;2023-07-22T14:53:47;4.78;;;4.35;;
6033;SDS011;3045;43.226;27.858;2023-07-22T14:56:16;4.38;;;4.18;;
6033;SDS011;3045;43.226;27.858;2023-07-22T14:58:42;5.68;;;5.18;;